Terminal Aerodrome Forecast
Issued by NWS

Home | Current Version | Previous Version | Text Only | Print | Product List | Glossary On
Versions: 1 2 3 4 5 6 7 8 9 10 11 12 13 14
000
FTUS45 KSLC 201720
TAFEVW
TAF
KEVW 201720Z 2018/2118 23007KT P6SM FEW150
     FM202000 28014G22KT P6SM SCT120 SCT150
     FM210300 11007KT P6SM SKC=

USA.gov is the U.S. government's official web portal to all federal, state and local government web resources and services.